createdAt,value
2017-01-04T00:00:38.253Z,4.48
2017-01-04T00:01:37.733Z,4.49
2017-01-04T00:02:37.735Z,4.49
2017-01-04T00:03:38.299Z,4.37
2017-01-04T00:04:37.563Z,4.52
2017-01-04T00:05:38.296Z,4.49
2017-01-04T00:06:38.330Z,4.49
2017-01-04T00:07:38.157Z,4.49
2017-01-04T00:08:38.174Z,4.5
2017-01-04T00:09:37.887Z,4.52
2017-01-04T00:10:37.885Z,4.44
2017-01-04T00:11:37.833Z,4.59
2017-01-04T00:12:38.917Z,4.63
2017-01-04T00:13:38.303Z,4.62
2017-01-04T00:14:37.602Z,4.58
2017-01-04T00:15:38.762Z,4.48
2017-01-04T00:16:38.037Z,4.49
2017-01-04T00:17:38.049Z,4.6
2017-01-04T00:18:38.043Z,4.56
2017-01-04T00:19:38.203Z,4.6
2017-01-04T00:20:38.642Z,4.67
2017-01-04T00:21:38.351Z,4.66
2017-01-04T00:22:38.797Z,4.59
2017-01-04T00:23:38.002Z,4.58
2017-01-04T00:24:39.423Z,4.59
2017-01-04T00:25:37.962Z,4.6
2017-01-04T00:26:39.070Z,4.66
2017-01-04T00:27:38.645Z,4.62
2017-01-04T00:28:38.314Z,4.66
2017-01-04T00:29:38.187Z,4.67
2017-01-04T00:30:39.127Z,4.62
2017-01-04T00:31:38.433Z,4.58
2017-01-04T00:32:39.035Z,4.6
2017-01-04T00:33:38.466Z,4.53
2017-01-04T00:34:38.830Z,4.6
2017-01-04T00:35:38.576Z,4.6
2017-01-04T00:36:38.860Z,4.53
2017-01-04T00:37:38.389Z,4.67
2017-01-04T00:38:38.188Z,4.67
2017-01-04T00:39:38.921Z,4.74
2017-01-04T00:40:39.030Z,4.62
2017-01-04T00:41:38.562Z,4.71
2017-01-04T00:42:38.465Z,4.74
2017-01-04T00:43:38.498Z,4.8
2017-01-04T00:44:38.774Z,4.89
2017-01-04T00:45:39.249Z,4.8
2017-01-04T00:46:38.481Z,4.86
2017-01-04T00:47:38.696Z,4.9
2017-01-04T00:48:38.937Z,4.86
2017-01-04T00:49:38.928Z,4.84
2017-01-04T00:50:38.487Z,4.82
2017-01-04T00:51:38.398Z,4.9
2017-01-04T00:52:38.452Z,4.82
2017-01-04T00:53:38.761Z,4.87
2017-01-04T00:54:38.240Z,4.84
2017-01-04T00:55:39.250Z,4.87
2017-01-04T00:56:38.429Z,4.84
2017-01-04T00:57:39.471Z,4.82
2017-01-04T00:58:39.086Z,4.9
2017-01-04T00:59:38.399Z,4.96
2017-01-04T01:00:39.526Z,4.92
2017-01-04T01:01:39.143Z,4.97
2017-01-04T01:02:39.066Z,4.93
2017-01-04T01:03:38.513Z,4.87
2017-01-04T01:04:38.918Z,4.97
2017-01-04T01:05:39.513Z,4.93
2017-01-04T01:06:39.279Z,5.05
2017-01-04T01:07:39.479Z,4.97
2017-01-04T01:08:39.194Z,5.02
2017-01-04T01:09:38.697Z,5.08
2017-01-04T01:10:40.025Z,4.97
2017-01-04T01:11:39.583Z,5.02
2017-01-04T01:12:39.273Z,5
2017-01-04T01:13:39.232Z,5
2017-01-04T01:14:39.342Z,5.14
2017-01-04T01:15:39.478Z,5.05
2017-01-04T01:16:38.971Z,5
2017-01-04T01:17:39.190Z,5.05
2017-01-04T01:18:38.711Z,5.05
2017-01-04T01:19:39.528Z,5.04
2017-01-04T01:20:38.937Z,5.11
2017-01-04T01:21:38.758Z,5.11
2017-01-04T01:22:38.859Z,5.11
2017-01-04T01:23:39.819Z,5.17
2017-01-04T01:24:39.356Z,5.12
2017-01-04T01:25:38.839Z,5.14
2017-01-04T01:26:38.569Z,5
2017-01-04T01:27:39.178Z,5.08
2017-01-04T01:28:39.068Z,5.02
2017-01-04T01:29:38.834Z,5.07
2017-01-04T01:30:39.041Z,5.08
2017-01-04T01:31:39.348Z,5.07
2017-01-04T01:32:40.009Z,5.02
2017-01-04T01:33:40.048Z,5.14
2017-01-04T01:34:39.297Z,5.02
2017-01-04T01:35:39.049Z,5.07
2017-01-04T01:36:39.331Z,5.07
2017-01-04T01:37:39.142Z,5.18
2017-01-04T01:38:39.799Z,5.12
2017-01-04T01:39:39.184Z,4.97
2017-01-04T01:40:39.322Z,4.99
2017-01-04T01:41:40.434Z,5.11
2017-01-04T01:42:39.636Z,5.11
2017-01-04T01:43:39.048Z,5.02
2017-01-04T01:44:40.071Z,4.99
2017-01-04T01:45:39.863Z,5
2017-01-04T01:46:39.287Z,5
2017-01-04T01:47:39.233Z,5.08
2017-01-04T01:48:40.265Z,5
2017-01-04T01:49:39.780Z,5.02
2017-01-04T01:50:39.304Z,4.99
2017-01-04T01:51:39.775Z,5.05
2017-01-04T01:52:39.617Z,4.97
2017-01-04T01:53:39.677Z,5.1
2017-01-04T01:54:40.685Z,4.96
2017-01-04T01:55:39.565Z,5.02
2017-01-04T01:56:39.188Z,4.92
2017-01-04T01:57:39.916Z,5.05
2017-01-04T01:58:40.285Z,4.97
2017-01-04T01:59:39.677Z,5.02
2017-01-04T02:00:39.368Z,5
2017-01-04T02:01:39.993Z,4.99
2017-01-04T02:02:39.992Z,4.96
2017-01-04T02:03:39.510Z,4.99
2017-01-04T02:04:39.283Z,5.12
2017-01-04T02:05:39.520Z,5.18
2017-01-04T02:06:39.921Z,5.11
2017-01-04T02:07:39.567Z,5.11
2017-01-04T02:08:39.604Z,5.11
2017-01-04T02:09:39.283Z,5
2017-01-04T02:10:39.394Z,5.14
2017-01-04T02:11:39.626Z,5.11
2017-01-04T02:12:39.970Z,5.2
2017-01-04T02:13:39.908Z,5.26
2017-01-04T02:14:39.515Z,5.26
2017-01-04T02:15:39.807Z,5.26
2017-01-04T02:16:39.372Z,5.28
2017-01-04T02:17:40.307Z,5.3
2017-01-04T02:18:39.690Z,5.26
2017-01-04T02:19:39.896Z,5.18
2017-01-04T02:20:39.747Z,5.12
2017-01-04T02:21:39.847Z,5.1
2017-01-04T02:22:39.814Z,5.2
2017-01-04T02:23:39.744Z,5.21
2017-01-04T02:24:39.699Z,5.2
2017-01-04T02:25:40.833Z,5.21
2017-01-04T02:26:39.416Z,5.21
2017-01-04T02:27:39.582Z,5.08
2017-01-04T02:28:40.161Z,5.12
2017-01-04T02:29:40.242Z,5.1
2017-01-04T02:30:39.804Z,5.26
2017-01-04T02:31:40.170Z,5.2
2017-01-04T02:32:40.129Z,5.15
2017-01-04T02:33:40.363Z,5.23
2017-01-04T02:34:40.296Z,5.23
2017-01-04T02:35:40.142Z,5.25
2017-01-04T02:36:40.295Z,5.28
2017-01-04T02:37:39.668Z,5.28
2017-01-04T02:38:40.305Z,5.28
2017-01-04T02:39:40.234Z,5.35
2017-01-04T02:40:40.395Z,5.29
2017-01-04T02:41:40.504Z,5.23
2017-01-04T02:42:39.788Z,5.29
2017-01-04T02:43:39.898Z,5.28
2017-01-04T02:44:41.189Z,5.35
2017-01-04T02:45:40.375Z,5.36
2017-01-04T02:46:39.930Z,5.26
2017-01-04T02:47:40.207Z,5.23
2017-01-04T02:48:41.065Z,5.3
2017-01-04T02:49:39.896Z,5.26
2017-01-04T02:50:39.812Z,5.26
2017-01-04T02:51:40.172Z,5.28
2017-01-04T02:52:40.167Z,5.29
2017-01-04T02:53:40.080Z,5.25
2017-01-04T02:54:40.301Z,5.21
2017-01-04T02:55:40.211Z,5.17
2017-01-04T02:56:40.085Z,5.25
2017-01-04T02:57:40.934Z,5.17
2017-01-04T02:58:41.092Z,5.12
2017-01-04T02:59:40.609Z,5.32
2017-01-04T03:00:39.997Z,5.21
2017-01-04T03:01:40.996Z,5.3
2017-01-04T03:02:40.024Z,5.3
2017-01-04T03:03:40.733Z,5.33
2017-01-04T03:04:40.685Z,5.28
2017-01-04T03:05:40.484Z,5.29
2017-01-04T03:06:40.779Z,5.21
2017-01-04T03:07:41.061Z,5.32
2017-01-04T03:08:40.861Z,5.23
2017-01-04T03:09:40.189Z,5.18
2017-01-04T03:10:40.788Z,5.07
2017-01-04T03:11:40.339Z,5.2
2017-01-04T03:12:41.012Z,5.1
2017-01-04T03:13:40.316Z,5.21
2017-01-04T03:14:41.295Z,5.18
2017-01-04T03:15:40.753Z,5.25
2017-01-04T03:16:40.465Z,5.11
2017-01-04T03:17:40.881Z,5.2
2017-01-04T03:18:40.626Z,5.18
2017-01-04T03:19:40.830Z,5.17
2017-01-04T03:20:40.851Z,5.23
2017-01-04T03:21:40.462Z,5.15
2017-01-04T03:22:40.815Z,5.17
2017-01-04T03:23:40.503Z,5.07
2017-01-04T03:24:40.876Z,5.11
2017-01-04T03:25:40.588Z,5.07
2017-01-04T03:26:40.690Z,5.18
2017-01-04T03:27:41.073Z,5
2017-01-04T03:28:40.207Z,5
2017-01-04T03:29:40.766Z,4.96
2017-01-04T03:30:40.956Z,5
2017-01-04T03:31:40.952Z,4.97
2017-01-04T03:32:40.391Z,4.87
2017-01-04T03:33:41.084Z,4.93
2017-01-04T03:34:40.621Z,4.92
2017-01-04T03:35:41.124Z,4.89
2017-01-04T03:36:40.408Z,4.97
2017-01-04T03:37:40.587Z,4.89
2017-01-04T03:38:40.588Z,4.89
2017-01-04T03:39:40.987Z,4.87
2017-01-04T03:40:41.904Z,4.89
2017-01-04T03:41:41.199Z,4.86
2017-01-04T03:42:41.661Z,4.87
2017-01-04T03:43:41.594Z,4.86
2017-01-04T03:44:41.032Z,4.87
2017-01-04T03:45:41.457Z,4.82
2017-01-04T03:46:41.254Z,4.87
2017-01-04T03:47:41.037Z,4.93
2017-01-04T03:48:41.065Z,5.05
2017-01-04T03:49:40.512Z,5.05
2017-01-04T03:50:41.221Z,5.05
2017-01-04T03:51:40.928Z,5.08
2017-01-04T03:52:41.483Z,5.1
2017-01-04T03:53:40.975Z,5.1
2017-01-04T03:54:41.317Z,5.11
2017-01-04T03:55:41.591Z,5.07
2017-01-04T03:56:41.223Z,5.1
2017-01-04T03:57:42.654Z,5.12
2017-01-04T03:58:41.119Z,5.08
2017-01-04T03:59:40.536Z,5.17
2017-01-04T04:00:41.440Z,5.25
2017-01-04T04:01:41.783Z,5.3
2017-01-04T04:02:40.972Z,5.26
2017-01-04T04:03:40.868Z,5.33
2017-01-04T04:04:41.302Z,5.43
2017-01-04T04:05:41.962Z,5.43
2017-01-04T04:06:41.399Z,5.38
2017-01-04T04:07:41.189Z,5.41
2017-01-04T04:08:40.918Z,5.38
2017-01-04T04:09:41.195Z,5.33
2017-01-04T04:10:41.417Z,5.32
2017-01-04T04:11:41.784Z,5.36
2017-01-04T04:12:41.311Z,5.46
2017-01-04T04:13:41.777Z,5.51
2017-01-04T04:14:41.135Z,5.38
2017-01-04T04:15:41.259Z,5.44
2017-01-04T04:16:41.242Z,5.32
2017-01-04T04:17:41.806Z,5.41
2017-01-04T04:18:41.359Z,5.38
2017-01-04T04:19:41.659Z,5.39
2017-01-04T04:20:41.166Z,5.39
2017-01-04T04:21:42.115Z,5.35
2017-01-04T04:22:41.420Z,5.36
2017-01-04T04:23:41.352Z,5.26
2017-01-04T04:24:42.239Z,5.26
2017-01-04T04:25:41.787Z,5.32
2017-01-04T04:26:42.205Z,5.39
2017-01-04T04:27:41.536Z,5.38
2017-01-04T04:28:41.829Z,5.26
2017-01-04T04:29:41.829Z,5.21
2017-01-04T04:30:41.774Z,5.28
2017-01-04T04:31:42.255Z,5.23
2017-01-04T04:32:41.656Z,5.17
2017-01-04T04:33:42.281Z,5.14
2017-01-04T04:34:42.043Z,5.14
2017-01-04T04:35:42.266Z,5.1
2017-01-04T04:36:42.422Z,5.18
2017-01-04T04:37:42.075Z,5.11
2017-01-04T04:38:41.479Z,5.17
2017-01-04T04:39:41.361Z,5.17
2017-01-04T04:40:42.590Z,5.11
2017-01-04T04:41:41.981Z,5.11
2017-01-04T04:42:42.447Z,5.1
2017-01-04T04:43:41.520Z,5.21
2017-01-04T04:44:41.828Z,5.12
2017-01-04T04:45:42.562Z,5.17
2017-01-04T04:46:42.005Z,5.15
2017-01-04T04:47:41.591Z,5.17
2017-01-04T04:48:41.705Z,5.12
2017-01-04T04:49:41.843Z,5.08
2017-01-04T04:50:41.852Z,5.1
2017-01-04T04:51:42.015Z,5.2
2017-01-04T04:52:41.482Z,5.12
2017-01-04T04:53:41.821Z,5.17
2017-01-04T04:54:42.572Z,5.08
2017-01-04T04:55:42.874Z,5.02
2017-01-04T04:56:42.672Z,5.12
2017-01-04T04:57:42.256Z,5.04
2017-01-04T04:58:41.932Z,5.11
2017-01-04T04:59:41.665Z,5.2
2017-01-04T05:00:41.460Z,5.28
2017-01-04T05:01:41.843Z,5.28
2017-01-04T05:02:41.699Z,5.35
2017-01-04T05:03:42.232Z,5.38
2017-01-04T05:04:42.752Z,5.36
2017-01-04T05:05:41.697Z,5.38
2017-01-04T05:06:43.512Z,5.46
2017-01-04T05:07:42.323Z,5.44
2017-01-04T05:08:42.644Z,5.47
2017-01-04T05:09:43.106Z,5.47
2017-01-04T05:10:42.445Z,5.38
2017-01-04T05:11:43.204Z,5.36
2017-01-04T05:12:42.937Z,5.35
2017-01-04T05:13:42.524Z,5.17
2017-01-04T05:14:43.176Z,4.94
2017-01-04T05:15:42.254Z,4.6
2017-01-04T05:16:43.636Z,4.42
2017-01-04T05:17:43.602Z,4.14
2017-01-04T05:18:44.104Z,4.04
2017-01-04T05:19:43.602Z,3.99
2017-01-04T05:20:43.051Z,3.95
2017-01-04T05:21:44.326Z,3.96
2017-01-04T05:22:43.144Z,3.98
2017-01-04T05:23:43.776Z,3.84
2017-01-04T05:24:42.586Z,3.84
2017-01-04T05:25:42.671Z,3.84
2017-01-04T05:26:42.673Z,3.83
2017-01-04T05:27:43.283Z,3.73
2017-01-04T05:28:43.152Z,3.7
2017-01-04T05:29:43.362Z,3.86
2017-01-04T05:30:42.683Z,3.73
2017-01-04T05:31:42.488Z,3.68
2017-01-04T05:32:43.471Z,3.81
2017-01-04T05:33:44.222Z,3.7
2017-01-04T05:34:43.451Z,3.73
2017-01-04T05:35:44.391Z,3.83
2017-01-04T05:36:42.947Z,3.76
2017-01-04T05:37:42.993Z,3.8
2017-01-04T05:38:43.212Z,3.84
2017-01-04T05:39:42.588Z,3.86
2017-01-04T05:40:43.086Z,3.8
2017-01-04T05:41:43.189Z,3.86
2017-01-04T05:42:42.816Z,3.78
2017-01-04T05:43:43.425Z,3.8
2017-01-04T05:44:43.356Z,3.81
2017-01-04T05:45:42.919Z,3.78
2017-01-04T05:46:43.147Z,3.73
2017-01-04T05:47:43.336Z,3.73
2017-01-04T05:48:42.742Z,3.59
2017-01-04T05:49:43.671Z,3.62
2017-01-04T05:50:42.690Z,3.62
2017-01-04T05:51:43.416Z,3.58
2017-01-04T05:52:43.615Z,3.56
2017-01-04T05:53:44.208Z,3.48
2017-01-04T05:54:43.249Z,3.48
2017-01-04T05:55:43.261Z,3.41
2017-01-04T05:56:44.109Z,3.41
2017-01-04T05:57:42.979Z,3.36
2017-01-04T05:58:43.768Z,3.32
2017-01-04T05:59:42.807Z,3.37
2017-01-04T06:00:45.189Z,3.32
2017-01-04T06:01:43.245Z,3.32
2017-01-04T06:02:43.680Z,3.29
2017-01-04T06:03:43.188Z,3.41
2017-01-04T06:04:43.226Z,3.45
2017-01-04T06:05:42.527Z,3.41
2017-01-04T06:06:44.015Z,3.5
2017-01-04T06:07:42.831Z,3.69
2017-01-04T06:08:43.318Z,3.95
2017-01-04T06:09:42.965Z,4.05
2017-01-04T06:10:44.550Z,3.95
2017-01-04T06:11:43.878Z,3.91
2017-01-04T06:12:44.170Z,3.94
2017-01-04T06:13:44.554Z,3.86
2017-01-04T06:14:44.014Z,3.87
2017-01-04T06:15:43.981Z,3.91
2017-01-04T06:16:43.614Z,3.95
2017-01-04T06:17:43.474Z,4.02
2017-01-04T06:18:43.542Z,4.26
2017-01-04T06:19:43.607Z,4.45
2017-01-04T06:20:42.934Z,4.44
2017-01-04T06:21:43.303Z,4.44
2017-01-04T06:22:43.808Z,4.62
2017-01-04T06:23:44.321Z,4.62
2017-01-04T06:24:43.705Z,4.68
2017-01-04T06:25:43.669Z,4.67
2017-01-04T06:26:43.615Z,4.87
2017-01-04T06:27:45.375Z,4.92
2017-01-04T06:28:43.305Z,4.96
2017-01-04T06:29:43.404Z,5.04
2017-01-04T06:30:44.646Z,5.05
2017-01-04T06:31:44.353Z,4.99
2017-01-04T06:32:44.640Z,4.8
2017-01-04T06:33:44.990Z,4.74
2017-01-04T06:34:43.874Z,4.62
2017-01-04T06:35:43.786Z,4.66
2017-01-04T06:36:44.207Z,4.48
2017-01-04T06:37:43.517Z,4.48
2017-01-04T06:38:43.792Z,4.49
2017-01-04T06:39:43.191Z,4.45
2017-01-04T06:40:43.942Z,4.34
2017-01-04T06:41:43.366Z,4.44
2017-01-04T06:42:44.040Z,4.45
2017-01-04T06:43:44.606Z,4.31
2017-01-04T06:44:44.241Z,4.34
2017-01-04T06:45:44.173Z,4.34
2017-01-04T06:46:44.462Z,4.3
2017-01-04T06:47:43.696Z,4.3
2017-01-04T06:48:43.363Z,4.35
2017-01-04T06:49:43.984Z,4.23
2017-01-04T06:50:43.675Z,4.26
2017-01-04T06:51:44.367Z,4.23
2017-01-04T06:52:44.619Z,4.14
2017-01-04T06:53:44.545Z,4.26
2017-01-04T06:54:45.334Z,4.19
2017-01-04T06:55:44.400Z,4.17
2017-01-04T06:56:43.814Z,4.05
2017-01-04T06:57:44.807Z,4.04
2017-01-04T06:58:44.079Z,4.04
2017-01-04T06:59:44.109Z,4.06
2017-01-04T07:00:44.729Z,4.06
2017-01-04T07:01:44.228Z,4.04
2017-01-04T07:02:44.698Z,4.04
2017-01-04T07:04:08.710Z,3.99
2017-01-04T07:04:44.444Z,4.05
2017-01-04T07:05:44.226Z,4.01
2017-01-04T07:06:44.854Z,4.04
2017-01-04T07:07:45.686Z,3.95
2017-01-04T07:08:44.522Z,4.04
2017-01-04T07:09:45.057Z,3.95
2017-01-04T07:10:45.919Z,3.94
2017-01-04T07:11:44.563Z,3.94
2017-01-04T07:12:44.167Z,4.06
2017-01-04T07:13:44.792Z,4.05
2017-01-04T07:14:44.276Z,4.02
2017-01-04T07:15:44.277Z,3.98
2017-01-04T07:16:45.566Z,3.98
2017-01-04T07:17:44.706Z,3.96
2017-01-04T07:18:44.114Z,3.88
2017-01-04T07:19:44.575Z,3.92
2017-01-04T07:20:44.226Z,3.78
2017-01-04T07:21:44.889Z,3.68
2017-01-04T07:22:44.702Z,3.8
2017-01-04T07:23:44.858Z,3.7
2017-01-04T07:24:44.467Z,3.7
2017-01-04T07:25:44.568Z,3.74
2017-01-04T07:26:45.409Z,3.69
2017-01-04T07:27:44.465Z,3.87
2017-01-04T07:28:44.312Z,3.92
2017-01-04T07:29:44.970Z,3.83
2017-01-04T07:30:44.290Z,3.83
2017-01-04T07:31:45.327Z,3.84
2017-01-04T07:32:44.884Z,3.84
2017-01-04T07:33:46.209Z,3.87
2017-01-04T07:34:45.329Z,3.94
2017-01-04T07:35:44.969Z,3.88
2017-01-04T07:36:46.153Z,3.98
2017-01-04T07:37:45.017Z,3.88
2017-01-04T07:38:44.311Z,3.87
2017-01-04T07:39:44.681Z,3.84
2017-01-04T07:40:44.768Z,3.83
2017-01-04T07:41:44.649Z,3.92
2017-01-04T07:42:44.686Z,3.86
2017-01-04T07:43:44.898Z,3.96
2017-01-04T07:44:45.124Z,3.92
2017-01-04T07:45:45.336Z,3.91
2017-01-04T07:46:45.204Z,3.96
2017-01-04T07:47:44.819Z,3.94
2017-01-04T07:48:44.793Z,3.92
2017-01-04T07:49:45.383Z,4.01
2017-01-04T07:50:45.197Z,3.92
2017-01-04T07:51:45.670Z,3.96
2017-01-04T07:52:45.889Z,3.98
2017-01-04T07:53:44.538Z,3.86
2017-01-04T07:54:44.687Z,3.95
2017-01-04T07:55:45.267Z,3.87
2017-01-04T07:56:45.183Z,3.84
2017-01-04T07:57:45.024Z,3.92
2017-01-04T07:58:44.845Z,3.86
2017-01-04T07:59:44.999Z,3.94
2017-01-04T08:00:44.716Z,3.92
2017-01-04T08:01:44.897Z,3.86
2017-01-04T08:02:45.163Z,3.99
2017-01-04T08:03:44.464Z,4.01
2017-01-04T08:04:44.611Z,3.92
2017-01-04T08:05:44.314Z,3.95
2017-01-04T08:06:44.217Z,4.01
2017-01-04T08:07:45.405Z,4.05
2017-01-04T08:08:44.967Z,4.12
2017-01-04T08:09:44.655Z,4.22
2017-01-04T08:10:45.768Z,4.31
2017-01-04T08:11:44.786Z,4.34
2017-01-04T08:12:44.343Z,4.32
2017-01-04T08:13:44.739Z,4.42
2017-01-04T08:14:45.113Z,4.38
2017-01-04T08:15:44.459Z,4.42
2017-01-04T08:16:44.213Z,4.52
2017-01-04T08:17:44.309Z,4.42
2017-01-04T08:18:44.503Z,4.41
2017-01-04T08:19:45.367Z,4.41
2017-01-04T08:20:45.003Z,4.53
2017-01-04T08:21:45.569Z,4.56
2017-01-04T08:22:44.703Z,4.49
2017-01-04T08:23:44.274Z,4.55
2017-01-04T08:24:44.747Z,4.6
2017-01-04T08:25:45.426Z,4.58
2017-01-04T08:26:44.845Z,4.59
2017-01-04T08:27:45.343Z,4.59
2017-01-04T08:28:44.759Z,4.67
2017-01-04T08:29:45.927Z,4.6
2017-01-04T08:30:45.743Z,4.58
2017-01-04T08:31:46.091Z,4.67
2017-01-04T08:32:44.731Z,4.71
2017-01-04T08:33:45.056Z,4.73
2017-01-04T08:34:44.877Z,4.74
2017-01-04T08:35:44.867Z,4.71
2017-01-04T08:36:44.760Z,4.74
2017-01-04T08:37:45.170Z,4.7
2017-01-04T08:38:45.384Z,4.62
2017-01-04T08:39:45.291Z,4.6
2017-01-04T08:40:44.978Z,4.62
2017-01-04T08:41:44.618Z,4.6
2017-01-04T08:42:46.557Z,4.66
2017-01-04T08:43:45.114Z,4.66
2017-01-04T08:44:44.646Z,4.58
2017-01-04T08:45:44.787Z,4.56
2017-01-04T08:46:45.495Z,4.63
2017-01-04T08:47:44.791Z,4.58
2017-01-04T08:48:45.027Z,4.53
2017-01-04T08:49:45.050Z,4.59
2017-01-04T08:50:45.544Z,4.52
2017-01-04T08:51:45.394Z,4.58
2017-01-04T08:52:45.052Z,4.45
2017-01-04T08:53:45.260Z,4.55
2017-01-04T08:54:45.515Z,4.63
2017-01-04T08:55:44.859Z,4.58
2017-01-04T08:56:46.220Z,4.49
2017-01-04T08:57:45.564Z,4.53
2017-01-04T08:58:45.200Z,4.5
2017-01-04T08:59:45.146Z,4.5
2017-01-04T09:00:45.192Z,4.53
2017-01-04T09:01:44.978Z,4.53
2017-01-04T09:02:44.860Z,4.67
2017-01-04T09:03:45.983Z,4.58
2017-01-04T09:04:45.696Z,4.63
2017-01-04T09:05:45.089Z,4.74
2017-01-04T09:06:45.525Z,4.78
2017-01-04T09:07:44.965Z,4.68
2017-01-04T09:08:45.522Z,4.77
2017-01-04T09:09:45.255Z,4.77
2017-01-04T09:10:45.681Z,4.7
2017-01-04T09:11:46.079Z,4.74
2017-01-04T09:12:46.470Z,4.67
2017-01-04T09:13:45.303Z,4.66
2017-01-04T09:14:45.238Z,4.63
2017-01-04T09:15:45.646Z,4.71
2017-01-04T09:16:45.655Z,4.77
2017-01-04T09:17:45.654Z,4.77
2017-01-04T09:18:45.588Z,4.68
2017-01-04T09:19:46.416Z,4.7
2017-01-04T09:20:45.120Z,4.66
2017-01-04T09:21:45.888Z,4.68
2017-01-04T09:22:45.091Z,4.84
2017-01-04T09:23:46.338Z,4.86
2017-01-04T09:24:46.241Z,4.78
2017-01-04T09:25:46.038Z,4.86
2017-01-04T09:26:46.576Z,4.77
2017-01-04T09:27:45.935Z,4.86
2017-01-04T09:28:45.261Z,4.87
2017-01-04T09:29:46.310Z,4.86
2017-01-04T09:30:45.772Z,4.82
2017-01-04T09:31:45.515Z,4.86
2017-01-04T09:32:46.090Z,4.77
2017-01-04T09:33:45.803Z,4.86
2017-01-04T09:34:45.420Z,4.89
2017-01-04T09:35:45.580Z,4.9
2017-01-04T09:36:45.538Z,4.9
2017-01-04T09:37:46.223Z,4.89
2017-01-04T09:38:45.796Z,4.87
2017-01-04T09:39:46.166Z,4.89
2017-01-04T09:40:46.216Z,4.86
2017-01-04T09:41:45.891Z,4.68
2017-01-04T09:42:45.714Z,4.7
2017-01-04T09:43:46.400Z,4.7
2017-01-04T09:44:46.051Z,4.84
2017-01-04T09:45:47.116Z,4.84
2017-01-04T09:46:45.852Z,4.73
2017-01-04T09:47:46.160Z,4.73
2017-01-04T09:48:46.340Z,4.75
2017-01-04T09:49:45.617Z,4.84
2017-01-04T09:50:45.868Z,4.82
2017-01-04T09:51:45.747Z,4.97
2017-01-04T09:52:46.080Z,5.08
2017-01-04T09:53:45.616Z,5.21
2017-01-04T09:54:45.605Z,5.18
2017-01-04T09:55:46.271Z,5.21
2017-01-04T09:56:46.431Z,5.21
2017-01-04T09:57:46.039Z,5.14
2017-01-04T09:58:46.049Z,5.12
2017-01-04T09:59:45.561Z,5.12
2017-01-04T10:00:46.376Z,4.99
2017-01-04T10:01:46.337Z,5.05
2017-01-04T10:02:46.538Z,5.02
2017-01-04T10:03:46.083Z,5.02
2017-01-04T10:04:47.104Z,4.84
2017-01-04T10:05:46.347Z,4.8
2017-01-04T10:06:46.070Z,4.82
2017-01-04T10:07:46.141Z,4.73
2017-01-04T10:08:46.643Z,4.7
2017-01-04T10:09:46.288Z,4.68
2017-01-04T10:10:46.076Z,4.68
2017-01-04T10:11:45.984Z,4.74
2017-01-04T10:12:46.041Z,4.74
2017-01-04T10:13:46.916Z,4.7
2017-01-04T10:14:45.967Z,4.62
2017-01-04T10:15:46.710Z,4.6
2017-01-04T10:16:46.776Z,4.6
2017-01-04T10:17:46.596Z,4.6
2017-01-04T10:18:45.842Z,4.63
2017-01-04T10:19:46.516Z,4.6
2017-01-04T10:20:46.578Z,4.67
2017-01-04T10:21:46.656Z,4.68
2017-01-04T10:22:46.982Z,4.67
2017-01-04T10:23:46.286Z,4.7
2017-01-04T10:24:48.250Z,4.78
2017-01-04T10:25:46.736Z,4.87
2017-01-04T10:26:47.109Z,5.02
2017-01-04T10:27:47.695Z,5.08
2017-01-04T10:28:46.882Z,5.04
2017-01-04T10:29:47.295Z,5.14
2017-01-04T10:30:49.691Z,5.14
2017-01-04T10:31:47.441Z,5.21
2017-01-04T10:32:46.387Z,5.35
2017-01-04T10:33:48.060Z,5.36
2017-01-04T10:34:47.772Z,5.35
2017-01-04T10:35:48.438Z,5.39
2017-01-04T10:36:46.705Z,5.32
2017-01-04T10:37:46.655Z,5.36
2017-01-04T10:38:46.576Z,5.39
2017-01-04T10:39:47.252Z,5.5
2017-01-04T10:40:46.338Z,5.62
2017-01-04T10:41:46.891Z,5.53
2017-01-04T10:42:46.511Z,5.62
2017-01-04T10:43:46.514Z,5.54
2017-01-04T10:44:46.648Z,5.62
2017-01-04T10:45:46.526Z,5.53
2017-01-04T10:46:47.116Z,5.71
2017-01-04T10:47:46.757Z,5.73
2017-01-04T10:48:46.362Z,5.71
2017-01-04T10:49:47.582Z,5.73
2017-01-04T10:50:47.100Z,5.82
2017-01-04T10:51:46.783Z,5.86
2017-01-04T10:52:47.221Z,5.89
2017-01-04T10:53:47.224Z,5.84
2017-01-04T10:54:46.852Z,5.83
2017-01-04T10:55:46.381Z,5.87
2017-01-04T10:56:47.071Z,5.83
2017-01-04T10:57:46.739Z,5.86
2017-01-04T10:58:46.529Z,5.83
2017-01-04T10:59:47.512Z,5.8
2017-01-04T11:00:46.597Z,5.83
2017-01-04T11:01:47.074Z,5.79
2017-01-04T11:02:46.704Z,5.71
2017-01-04T11:03:46.930Z,5.65
2017-01-04T11:04:46.495Z,5.61
2017-01-04T11:05:46.825Z,5.56
2017-01-04T11:06:46.621Z,5.68
2017-01-04T11:07:46.865Z,5.62
2017-01-04T11:08:47.240Z,5.59
2017-01-04T11:09:47.279Z,5.46
2017-01-04T11:10:46.806Z,5.47
2017-01-04T11:11:47.059Z,5.51
2017-01-04T11:12:47.038Z,5.48
2017-01-04T11:13:46.752Z,5.3
2017-01-04T11:14:46.839Z,5.38
2017-01-04T11:15:46.899Z,5.35
2017-01-04T11:16:47.300Z,5.35
2017-01-04T11:17:47.243Z,5.32
2017-01-04T11:18:48.398Z,5.3
2017-01-04T11:19:46.862Z,5.33
2017-01-04T11:20:47.260Z,5.26
2017-01-04T11:21:46.747Z,5.23
2017-01-04T11:22:47.714Z,5.29
2017-01-04T11:23:47.214Z,5.25
2017-01-04T11:24:46.967Z,5.28
2017-01-04T11:25:47.094Z,5.29
2017-01-04T11:26:47.984Z,5.17
2017-01-04T11:27:47.180Z,5.23
2017-01-04T11:28:47.221Z,5.15
2017-01-04T11:29:47.677Z,5.14
2017-01-04T11:30:47.011Z,5.18
2017-01-04T11:31:48.309Z,5.1
2017-01-04T11:32:47.088Z,5.08
2017-01-04T11:33:48.183Z,5.12
2017-01-04T11:34:47.000Z,5.21
2017-01-04T11:35:47.399Z,5.28
2017-01-04T11:36:46.861Z,5.32
2017-01-04T11:37:47.757Z,5.39
2017-01-04T11:38:47.262Z,5.41
2017-01-04T11:39:47.089Z,5.38
2017-01-04T11:40:47.783Z,5.35
2017-01-04T11:41:47.690Z,5.33
2017-01-04T11:42:47.836Z,5.39
2017-01-04T11:43:48.180Z,5.32
2017-01-04T11:44:47.458Z,5.29
2017-01-04T11:45:47.034Z,5.3
2017-01-04T11:46:47.109Z,5.29
2017-01-04T11:47:47.701Z,5.41
2017-01-04T11:48:47.429Z,5.47
2017-01-04T11:49:47.590Z,5.57
2017-01-04T11:50:47.631Z,5.57
2017-01-04T11:51:49.855Z,5.64
2017-01-04T11:52:47.748Z,5.62
2017-01-04T11:53:47.893Z,5.61
2017-01-04T11:54:47.786Z,5.59
2017-01-04T11:55:47.837Z,5.56
2017-01-04T11:56:48.316Z,5.62
2017-01-04T11:57:48.695Z,5.65
2017-01-04T11:58:47.687Z,5.56
2017-01-04T11:59:48.378Z,5.61
2017-01-04T12:00:47.715Z,5.48
2017-01-04T12:01:48.420Z,5.44
2017-01-04T12:02:48.100Z,5.48
2017-01-04T12:03:48.096Z,5.53
2017-01-04T12:04:48.139Z,5.44
2017-01-04T12:05:47.251Z,5.46
2017-01-04T12:06:47.846Z,5.46
2017-01-04T12:07:48.246Z,5.38
2017-01-04T12:08:47.589Z,5.43
2017-01-04T12:09:47.749Z,5.43
2017-01-04T12:10:47.502Z,5.33
2017-01-04T12:11:47.541Z,5.28
2017-01-04T12:12:48.198Z,5.33
2017-01-04T12:13:48.691Z,5.35
2017-01-04T12:14:48.055Z,5.35
2017-01-04T12:15:47.760Z,5.3
2017-01-04T12:16:48.499Z,5.25
2017-01-04T12:17:48.678Z,5.21
2017-01-04T12:18:48.202Z,5.21
2017-01-04T12:19:47.699Z,5.2
2017-01-04T12:20:47.732Z,5.15
2017-01-04T12:21:47.690Z,5.18
2017-01-04T12:22:48.441Z,5.25
2017-01-04T12:23:48.780Z,5.2
2017-01-04T12:24:47.711Z,5.28
2017-01-04T12:25:48.005Z,5.32
2017-01-04T12:26:47.769Z,5.26
2017-01-04T12:27:48.363Z,5.26
2017-01-04T12:28:47.784Z,5.29
2017-01-04T12:29:48.265Z,5.33
2017-01-04T12:30:48.635Z,5.43
2017-01-04T12:31:48.327Z,5.23
2017-01-04T12:32:48.503Z,5.3
2017-01-04T12:33:48.337Z,5.26
2017-01-04T12:34:47.907Z,5.29
2017-01-04T12:35:47.898Z,5.23
2017-01-04T12:36:48.506Z,5.21
2017-01-04T12:37:48.183Z,5.12
2017-01-04T12:38:48.092Z,5.11
2017-01-04T12:39:48.343Z,5.25
2017-01-04T12:40:48.513Z,5.28
2017-01-04T12:41:48.831Z,5.23
2017-01-04T12:42:48.093Z,5.28
2017-01-04T12:43:48.266Z,5.29
2017-01-04T12:44:48.364Z,5.26
2017-01-04T12:45:47.881Z,5.17
2017-01-04T12:46:49.245Z,5.17
2017-01-04T12:47:48.231Z,5.17
2017-01-04T12:48:48.399Z,5.15
2017-01-04T12:49:48.559Z,5.18
2017-01-04T12:50:48.523Z,5.14
2017-01-04T12:51:48.939Z,5.12
2017-01-04T12:52:48.611Z,5.05
2017-01-04T12:53:48.524Z,5.14
2017-01-04T12:54:49.396Z,5.12
2017-01-04T12:55:48.939Z,5.12
2017-01-04T12:56:49.239Z,5.1
2017-01-04T12:57:48.335Z,5.11
2017-01-04T12:58:48.328Z,5.1
2017-01-04T12:59:48.480Z,5.14
2017-01-04T13:00:48.222Z,5.08
2017-01-04T13:01:48.515Z,5.1
2017-01-04T13:02:48.815Z,5.14
2017-01-04T13:03:48.999Z,5.14
2017-01-04T13:04:48.478Z,5.12
2017-01-04T13:05:48.426Z,5.12
2017-01-04T13:06:48.184Z,5
2017-01-04T13:07:48.989Z,5.08
2017-01-04T13:08:48.431Z,4.93
2017-01-04T13:09:49.941Z,4.9
2017-01-04T13:10:48.741Z,4.84
2017-01-04T13:11:48.323Z,4.89
2017-01-04T13:12:49.176Z,4.89
2017-01-04T13:13:48.379Z,4.82
2017-01-04T13:14:48.857Z,4.82
2017-01-04T13:15:48.484Z,4.67
2017-01-04T13:16:48.661Z,4.7
2017-01-04T13:17:48.968Z,4.68
2017-01-04T13:18:48.571Z,4.68
2017-01-04T13:19:48.675Z,4.59
2017-01-04T13:20:49.262Z,4.58
2017-01-04T13:21:48.916Z,4.58
2017-01-04T13:22:49.704Z,4.53